sensor_id;sensor_type;location;lat;lon;timestamp;P1;P2;P0
62631;PMS5003;48703;51.248;-0.546;2023-04-24T00:02:39;33.00;30.13;
62631;PMS5003;48703;51.248;-0.546;2023-04-24T00:05:41;30.71;28.31;
62631;PMS5003;48703;51.248;-0.546;2023-04-24T00:08:43;29.87;25.74;
62631;PMS5003;48703;51.248;-0.546;2023-04-24T00:11:44;34.03;30.17;
62631;PMS5003;48703;51.248;-0.546;2023-04-24T00:14:46;31.70;27.84;
62631;PMS5003;48703;51.248;-0.546;2023-04-24T00:17:47;27.57;25.77;
62631;PMS5003;48703;51.248;-0.546;2023-04-24T00:20:49;34.69;30.44;
62631;PMS5003;48703;51.248;-0.546;2023-04-24T00:23:50;29.29;24.09;
62631;PMS5003;48703;51.248;-0.546;2023-04-24T00:26:52;30.76;27.00;
62631;PMS5003;48703;51.248;-0.546;2023-04-24T00:29:54;29.51;26.67;
62631;PMS5003;48703;51.248;-0.546;2023-04-24T00:32:55;33.66;28.74;
62631;PMS5003;48703;51.248;-0.546;2023-04-24T00:35:57;32.10;28.82;
62631;PMS5003;48703;51.248;-0.546;2023-04-24T00:38:59;32.03;28.35;
62631;PMS5003;48703;51.248;-0.546;2023-04-24T00:42:00;33.77;29.19;
62631;PMS5003;48703;51.248;-0.546;2023-04-24T00:45:01;31.71;29.77;
62631;PMS5003;48703;51.248;-0.546;2023-04-24T00:48:03;32.51;28.84;
62631;PMS5003;48703;51.248;-0.546;2023-04-24T00:51:05;29.78;28.22;
62631;PMS5003;48703;51.248;-0.546;2023-04-24T00:54:06;32.20;29.42;
62631;PMS5003;48703;51.248;-0.546;2023-04-24T00:57:08;31.39;28.00;
62631;PMS5003;48703;51.248;-0.546;2023-04-24T01:00:09;29.71;27.06;
62631;PMS5003;48703;51.248;-0.546;2023-04-24T01:03:10;32.52;28.12;
62631;PMS5003;48703;51.248;-0.546;2023-04-24T01:06:12;32.62;29.32;
62631;PMS5003;48703;51.248;-0.546;2023-04-24T01:09:14;33.93;30.46;
62631;PMS5003;48703;51.248;-0.546;2023-04-24T01:12:16;33.29;28.63;
62631;PMS5003;48703;51.248;-0.546;2023-04-24T01:15:17;31.42;27.91;
62631;PMS5003;48703;51.248;-0.546;2023-04-24T01:18:19;28.52;26.77;
62631;PMS5003;48703;51.248;-0.546;2023-04-24T01:21:20;32.71;29.25;
62631;PMS5003;48703;51.248;-0.546;2023-04-24T01:24:21;32.41;28.01;
62631;PMS5003;48703;51.248;-0.546;2023-04-24T01:27:23;30.06;27.30;
62631;PMS5003;48703;51.248;-0.546;2023-04-24T01:30:25;31.40;27.66;
62631;PMS5003;48703;51.248;-0.546;2023-04-24T01:33:27;33.68;31.31;
62631;PMS5003;48703;51.248;-0.546;2023-04-24T01:36:29;32.86;30.83;
62631;PMS5003;48703;51.248;-0.546;2023-04-24T01:39:31;30.37;27.76;
62631;PMS5003;48703;51.248;-0.546;2023-04-24T01:42:32;32.29;27.93;
62631;PMS5003;48703;51.248;-0.546;2023-04-24T01:45:33;33.00;28.39;
62631;PMS5003;48703;51.248;-0.546;2023-04-24T01:48:35;30.32;26.51;
62631;PMS5003;48703;51.248;-0.546;2023-04-24T01:51:36;33.00;27.64;
62631;PMS5003;48703;51.248;-0.546;2023-04-24T01:54:37;29.16;27.36;
62631;PMS5003;48703;51.248;-0.546;2023-04-24T01:57:38;28.35;26.13;
62631;PMS5003;48703;51.248;-0.546;2023-04-24T02:00:40;31.03;27.39;
62631;PMS5003;48703;51.248;-0.546;2023-04-24T02:03:41;30.10;28.09;
62631;PMS5003;48703;51.248;-0.546;2023-04-24T02:06:43;34.29;30.58;
62631;PMS5003;48703;51.248;-0.546;2023-04-24T02:09:44;33.30;30.01;
62631;PMS5003;48703;51.248;-0.546;2023-04-24T02:12:46;32.67;29.75;
62631;PMS5003;48703;51.248;-0.546;2023-04-24T02:15:48;30.09;28.21;
62631;PMS5003;48703;51.248;-0.546;2023-04-24T02:18:51;30.58;27.04;
62631;PMS5003;48703;51.248;-0.546;2023-04-24T02:21:52;33.00;29.52;
62631;PMS5003;48703;51.248;-0.546;2023-04-24T02:24:54;32.90;29.16;
62631;PMS5003;48703;51.248;-0.546;2023-04-24T02:27:56;33.53;30.06;
62631;PMS5003;48703;51.248;-0.546;2023-04-24T02:30:57;36.12;31.94;
62631;PMS5003;48703;51.248;-0.546;2023-04-24T02:33:58;33.07;30.46;
62631;PMS5003;48703;51.248;-0.546;2023-04-24T02:36:59;32.07;29.52;
62631;PMS5003;48703;51.248;-0.546;2023-04-24T02:40:01;32.14;28.23;
62631;PMS5003;48703;51.248;-0.546;2023-04-24T02:43:02;33.62;30.12;
62631;PMS5003;48703;51.248;-0.546;2023-04-24T02:46:03;33.83;30.71;
62631;PMS5003;48703;51.248;-0.546;2023-04-24T02:49:04;33.57;31.19;
62631;PMS5003;48703;51.248;-0.546;2023-04-24T02:52:06;34.77;29.72;
62631;PMS5003;48703;51.248;-0.546;2023-04-24T02:55:08;36.38;32.23;
62631;PMS5003;48703;51.248;-0.546;2023-04-24T02:58:10;33.83;30.39;
62631;PMS5003;48703;51.248;-0.546;2023-04-24T03:01:11;35.80;32.30;
62631;PMS5003;48703;51.248;-0.546;2023-04-24T03:04:14;38.77;31.87;
62631;PMS5003;48703;51.248;-0.546;2023-04-24T03:07:15;33.29;28.63;
62631;PMS5003;48703;51.248;-0.546;2023-04-24T03:10:17;29.20;27.53;
62631;PMS5003;48703;51.248;-0.546;2023-04-24T03:13:19;34.64;30.86;
62631;PMS5003;48703;51.248;-0.546;2023-04-24T03:16:20;35.77;32.07;
62631;PMS5003;48703;51.248;-0.546;2023-04-24T03:19:22;34.97;30.10;
62631;PMS5003;48703;51.248;-0.546;2023-04-24T03:22:24;35.53;31.87;
62631;PMS5003;48703;51.248;-0.546;2023-04-24T03:25:25;35.39;31.43;
62631;PMS5003;48703;51.248;-0.546;2023-04-24T03:28:27;35.32;30.87;
62631;PMS5003;48703;51.248;-0.546;2023-04-24T03:31:28;36.00;31.90;
62631;PMS5003;48703;51.248;-0.546;2023-04-24T03:34:30;36.20;33.17;
62631;PMS5003;48703;51.248;-0.546;2023-04-24T03:37:32;34.52;31.38;
62631;PMS5003;48703;51.248;-0.546;2023-04-24T03:40:34;36.00;31.62;
62631;PMS5003;48703;51.248;-0.546;2023-04-24T03:43:35;34.29;31.51;
62631;PMS5003;48703;51.248;-0.546;2023-04-24T03:46:37;33.44;30.16;
62631;PMS5003;48703;51.248;-0.546;2023-04-24T03:49:38;37.22;33.54;
62631;PMS5003;48703;51.248;-0.546;2023-04-24T03:52:39;36.03;30.04;
62631;PMS5003;48703;51.248;-0.546;2023-04-24T03:55:40;35.16;31.68;
62631;PMS5003;48703;51.248;-0.546;2023-04-24T03:58:42;33.54;29.04;
62631;PMS5003;48703;51.248;-0.546;2023-04-24T04:01:43;31.24;28.69;
62631;PMS5003;48703;51.248;-0.546;2023-04-24T04:04:45;34.96;30.88;
62631;PMS5003;48703;51.248;-0.546;2023-04-24T04:07:46;34.07;29.76;
62631;PMS5003;48703;51.248;-0.546;2023-04-24T04:10:47;30.64;27.29;
62631;PMS5003;48703;51.248;-0.546;2023-04-24T04:13:49;34.41;30.97;
62631;PMS5003;48703;51.248;-0.546;2023-04-24T04:16:50;33.43;29.56;
62631;PMS5003;48703;51.248;-0.546;2023-04-24T04:19:53;31.88;28.74;
62631;PMS5003;48703;51.248;-0.546;2023-04-24T04:22:54;30.54;28.35;
62631;PMS5003;48703;51.248;-0.546;2023-04-24T04:25:55;32.24;29.06;
62631;PMS5003;48703;51.248;-0.546;2023-04-24T04:28:58;32.23;27.97;
62631;PMS5003;48703;51.248;-0.546;2023-04-24T04:31:58;30.13;27.46;
62631;PMS5003;48703;51.248;-0.546;2023-04-24T04:35:00;29.55;26.10;
62631;PMS5003;48703;51.248;-0.546;2023-04-24T04:38:02;30.79;27.46;
62631;PMS5003;48703;51.248;-0.546;2023-04-24T04:41:03;29.46;24.73;
62631;PMS5003;48703;51.248;-0.546;2023-04-24T04:44:05;29.35;25.99;
62631;PMS5003;48703;51.248;-0.546;2023-04-24T04:47:06;31.59;27.43;
62631;PMS5003;48703;51.248;-0.546;2023-04-24T04:50:07;29.87;27.04;
62631;PMS5003;48703;51.248;-0.546;2023-04-24T04:53:08;32.64;28.06;
62631;PMS5003;48703;51.248;-0.546;2023-04-24T04:56:11;31.23;29.01;
62631;PMS5003;48703;51.248;-0.546;2023-04-24T04:59:12;31.67;27.81;
62631;PMS5003;48703;51.248;-0.546;2023-04-24T05:02:13;27.91;25.41;
62631;PMS5003;48703;51.248;-0.546;2023-04-24T05:05:15;32.36;28.12;
62631;PMS5003;48703;51.248;-0.546;2023-04-24T05:08:16;31.12;27.41;
62631;PMS5003;48703;51.248;-0.546;2023-04-24T05:11:17;32.12;27.14;
62631;PMS5003;48703;51.248;-0.546;2023-04-24T05:14:18;27.54;26.70;
62631;PMS5003;48703;51.248;-0.546;2023-04-24T05:17:21;27.20;23.84;
62631;PMS5003;48703;51.248;-0.546;2023-04-24T05:20:23;27.39;24.67;
62631;PMS5003;48703;51.248;-0.546;2023-04-24T05:23:25;27.36;25.13;
62631;PMS5003;48703;51.248;-0.546;2023-04-24T05:26:27;31.59;28.32;
62631;PMS5003;48703;51.248;-0.546;2023-04-24T05:29:28;27.78;25.14;
62631;PMS5003;48703;51.248;-0.546;2023-04-24T05:32:29;28.14;24.97;
62631;PMS5003;48703;51.248;-0.546;2023-04-24T05:35:31;29.03;26.13;
62631;PMS5003;48703;51.248;-0.546;2023-04-24T05:38:33;29.10;25.48;
62631;PMS5003;48703;51.248;-0.546;2023-04-24T05:41:35;30.09;28.47;
62631;PMS5003;48703;51.248;-0.546;2023-04-24T05:44:36;29.96;25.46;
62631;PMS5003;48703;51.248;-0.546;2023-04-24T05:47:37;40.53;36.24;
62631;PMS5003;48703;51.248;-0.546;2023-04-24T05:50:39;44.94;37.46;
62631;PMS5003;48703;51.248;-0.546;2023-04-24T05:53:41;31.26;29.65;
62631;PMS5003;48703;51.248;-0.546;2023-04-24T05:56:42;32.36;27.40;
62631;PMS5003;48703;51.248;-0.546;2023-04-24T05:59:43;28.66;26.53;
62631;PMS5003;48703;51.248;-0.546;2023-04-24T06:02:45;31.52;28.74;
62631;PMS5003;48703;51.248;-0.546;2023-04-24T06:05:46;28.17;24.94;
62631;PMS5003;48703;51.248;-0.546;2023-04-24T06:08:47;27.54;24.97;
62631;PMS5003;48703;51.248;-0.546;2023-04-24T06:11:48;26.53;24.94;
62631;PMS5003;48703;51.248;-0.546;2023-04-24T06:14:49;31.10;28.34;
62631;PMS5003;48703;51.248;-0.546;2023-04-24T06:17:51;28.59;26.20;
62631;PMS5003;48703;51.248;-0.546;2023-04-24T06:20:52;28.13;26.71;
62631;PMS5003;48703;51.248;-0.546;2023-04-24T06:23:54;27.99;26.45;
62631;PMS5003;48703;51.248;-0.546;2023-04-24T06:26:55;28.46;25.52;
62631;PMS5003;48703;51.248;-0.546;2023-04-24T06:29:56;29.84;27.71;
62631;PMS5003;48703;51.248;-0.546;2023-04-24T06:32:58;26.72;25.70;
62631;PMS5003;48703;51.248;-0.546;2023-04-24T06:35:59;32.43;27.17;
62631;PMS5003;48703;51.248;-0.546;2023-04-24T06:39:00;27.89;25.04;
62631;PMS5003;48703;51.248;-0.546;2023-04-24T06:42:02;28.83;27.16;
62631;PMS5003;48703;51.248;-0.546;2023-04-24T06:45:04;28.97;26.12;
62631;PMS5003;48703;51.248;-0.546;2023-04-24T06:48:05;32.25;27.32;
62631;PMS5003;48703;51.248;-0.546;2023-04-24T06:51:06;29.63;27.03;
62631;PMS5003;48703;51.248;-0.546;2023-04-24T06:54:08;30.57;29.16;
62631;PMS5003;48703;51.248;-0.546;2023-04-24T06:57:09;31.28;27.64;
62631;PMS5003;48703;51.248;-0.546;2023-04-24T07:00:10;30.96;28.06;
62631;PMS5003;48703;51.248;-0.546;2023-04-24T07:03:11;32.12;28.36;
62631;PMS5003;48703;51.248;-0.546;2023-04-24T07:06:14;31.29;28.61;
62631;PMS5003;48703;51.248;-0.546;2023-04-24T07:09:15;34.82;30.81;
62631;PMS5003;48703;51.248;-0.546;2023-04-24T07:12:17;31.74;30.33;
62631;PMS5003;48703;51.248;-0.546;2023-04-24T07:15:18;29.06;28.45;
62631;PMS5003;48703;51.248;-0.546;2023-04-24T07:18:19;29.06;27.11;
62631;PMS5003;48703;51.248;-0.546;2023-04-24T07:21:21;29.87;26.78;
62631;PMS5003;48703;51.248;-0.546;2023-04-24T07:24:22;28.53;25.99;
62631;PMS5003;48703;51.248;-0.546;2023-04-24T07:27:23;31.45;27.80;
62631;PMS5003;48703;51.248;-0.546;2023-04-24T07:30:25;28.74;28.06;
62631;PMS5003;48703;51.248;-0.546;2023-04-24T07:33:26;28.22;25.04;
62631;PMS5003;48703;51.248;-0.546;2023-04-24T07:36:27;28.32;25.39;
62631;PMS5003;48703;51.248;-0.546;2023-04-24T07:39:29;30.32;28.04;
62631;PMS5003;48703;51.248;-0.546;2023-04-24T07:42:30;29.19;26.30;
62631;PMS5003;48703;51.248;-0.546;2023-04-24T07:45:31;29.65;26.56;
62631;PMS5003;48703;51.248;-0.546;2023-04-24T07:48:31;27.49;25.97;
62631;PMS5003;48703;51.248;-0.546;2023-04-24T07:51:33;30.43;28.03;
62631;PMS5003;48703;51.248;-0.546;2023-04-24T07:54:35;30.81;28.32;
62631;PMS5003;48703;51.248;-0.546;2023-04-24T07:57:36;30.86;27.22;
62631;PMS5003;48703;51.248;-0.546;2023-04-24T08:00:37;26.43;23.57;
62631;PMS5003;48703;51.248;-0.546;2023-04-24T08:03:39;26.44;24.26;
62631;PMS5003;48703;51.248;-0.546;2023-04-24T08:06:41;27.49;25.21;
62631;PMS5003;48703;51.248;-0.546;2023-04-24T08:09:42;26.57;24.49;
62631;PMS5003;48703;51.248;-0.546;2023-04-24T08:12:42;26.61;23.38;
62631;PMS5003;48703;51.248;-0.546;2023-04-24T08:15:44;24.80;23.47;
62631;PMS5003;48703;51.248;-0.546;2023-04-24T08:18:45;23.09;21.39;
62631;PMS5003;48703;51.248;-0.546;2023-04-24T08:21:47;22.79;22.21;
62631;PMS5003;48703;51.248;-0.546;2023-04-24T08:24:48;25.46;23.45;
62631;PMS5003;48703;51.248;-0.546;2023-04-24T08:27:50;26.74;22.36;
62631;PMS5003;48703;51.248;-0.546;2023-04-24T08:30:50;23.39;21.81;
62631;PMS5003;48703;51.248;-0.546;2023-04-24T08:33:51;24.16;22.19;
62631;PMS5003;48703;51.248;-0.546;2023-04-24T08:36:53;26.78;22.57;
62631;PMS5003;48703;51.248;-0.546;2023-04-24T08:39:55;23.49;22.09;
62631;PMS5003;48703;51.248;-0.546;2023-04-24T08:42:57;22.31;20.31;
62631;PMS5003;48703;51.248;-0.546;2023-04-24T08:45:58;22.28;20.65;
62631;PMS5003;48703;51.248;-0.546;2023-04-24T08:48:59;24.07;22.25;
62631;PMS5003;48703;51.248;-0.546;2023-04-24T08:52:01;26.41;20.81;
62631;PMS5003;48703;51.248;-0.546;2023-04-24T08:55:03;22.87;19.96;
62631;PMS5003;48703;51.248;-0.546;2023-04-24T08:58:04;23.75;22.07;
62631;PMS5003;48703;51.248;-0.546;2023-04-24T09:01:05;24.54;22.65;
62631;PMS5003;48703;51.248;-0.546;2023-04-24T09:04:08;23.46;22.22;
62631;PMS5003;48703;51.248;-0.546;2023-04-24T09:07:08;22.07;21.51;
62631;PMS5003;48703;51.248;-0.546;2023-04-24T09:10:09;21.13;19.74;
62631;PMS5003;48703;51.248;-0.546;2023-04-24T09:13:11;21.94;17.74;
62631;PMS5003;48703;51.248;-0.546;2023-04-24T09:16:13;19.97;18.51;
62631;PMS5003;48703;51.248;-0.546;2023-04-24T09:19:14;21.94;20.39;
62631;PMS5003;48703;51.248;-0.546;2023-04-24T09:22:15;22.83;20.00;
62631;PMS5003;48703;51.248;-0.546;2023-04-24T09:25:16;23.21;19.89;
62631;PMS5003;48703;51.248;-0.546;2023-04-24T09:28:17;23.70;20.72;
62631;PMS5003;48703;51.248;-0.546;2023-04-24T09:31:18;21.87;20.54;
62631;PMS5003;48703;51.248;-0.546;2023-04-24T09:34:20;19.62;18.20;
62631;PMS5003;48703;51.248;-0.546;2023-04-24T09:37:28;20.29;18.89;
62631;PMS5003;48703;51.248;-0.546;2023-04-24T09:40:22;22.38;20.19;
62631;PMS5003;48703;51.248;-0.546;2023-04-24T09:43:23;21.35;20.54;
62631;PMS5003;48703;51.248;-0.546;2023-04-24T09:46:32;20.53;19.26;
62631;PMS5003;48703;51.248;-0.546;2023-04-24T09:49:26;21.30;19.14;
62631;PMS5003;48703;51.248;-0.546;2023-04-24T09:52:27;22.70;20.69;
62631;PMS5003;48703;51.248;-0.546;2023-04-24T09:55:29;21.17;19.49;
62631;PMS5003;48703;51.248;-0.546;2023-04-24T09:58:30;22.29;19.94;
62631;PMS5003;48703;51.248;-0.546;2023-04-24T10:01:33;20.39;19.23;
62631;PMS5003;48703;51.248;-0.546;2023-04-24T10:04:33;20.36;18.94;
62631;PMS5003;48703;51.248;-0.546;2023-04-24T10:07:35;21.47;20.14;
62631;PMS5003;48703;51.248;-0.546;2023-04-24T10:10:38;23.29;22.14;
62631;PMS5003;48703;51.248;-0.546;2023-04-24T10:13:37;23.13;20.96;
62631;PMS5003;48703;51.248;-0.546;2023-04-24T10:16:39;23.49;21.33;
62631;PMS5003;48703;51.248;-0.546;2023-04-24T10:19:40;22.78;20.19;
62631;PMS5003;48703;51.248;-0.546;2023-04-24T10:22:41;21.01;19.32;
62631;PMS5003;48703;51.248;-0.546;2023-04-24T10:25:43;19.00;18.53;
62631;PMS5003;48703;51.248;-0.546;2023-04-24T10:28:45;21.99;20.94;
62631;PMS5003;48703;51.248;-0.546;2023-04-24T10:31:46;20.73;18.74;
62631;PMS5003;48703;51.248;-0.546;2023-04-24T10:34:48;21.81;20.70;
62631;PMS5003;48703;51.248;-0.546;2023-04-24T10:37:53;23.61;22.30;
62631;PMS5003;48703;51.248;-0.546;2023-04-24T10:40:50;18.37;16.64;
62631;PMS5003;48703;51.248;-0.546;2023-04-24T10:44:03;18.10;17.13;
62631;PMS5003;48703;51.248;-0.546;2023-04-24T10:46:54;19.80;18.01;
62631;PMS5003;48703;51.248;-0.546;2023-04-24T10:49:55;22.59;20.32;
62631;PMS5003;48703;51.248;-0.546;2023-04-24T10:53:04;19.96;18.01;
62631;PMS5003;48703;51.248;-0.546;2023-04-24T10:55:58;20.34;18.80;
62631;PMS5003;48703;51.248;-0.546;2023-04-24T10:59:00;20.63;18.86;
62631;PMS5003;48703;51.248;-0.546;2023-04-24T11:02:02;21.60;19.01;
62631;PMS5003;48703;51.248;-0.546;2023-04-24T11:05:03;19.52;18.26;
62631;PMS5003;48703;51.248;-0.546;2023-04-24T11:08:12;20.56;19.06;
62631;PMS5003;48703;51.248;-0.546;2023-04-24T11:11:10;16.97;16.36;
62631;PMS5003;48703;51.248;-0.546;2023-04-24T11:14:07;17.80;17.50;
62631;PMS5003;48703;51.248;-0.546;2023-04-24T11:17:09;19.63;16.71;
62631;PMS5003;48703;51.248;-0.546;2023-04-24T11:20:11;16.47;15.17;
62631;PMS5003;48703;51.248;-0.546;2023-04-24T11:23:12;14.93;14.16;
62631;PMS5003;48703;51.248;-0.546;2023-04-24T11:26:17;15.84;14.71;
62631;PMS5003;48703;51.248;-0.546;2023-04-24T11:29:15;15.39;14.80;
62631;PMS5003;48703;51.248;-0.546;2023-04-24T11:32:17;15.93;15.74;
62631;PMS5003;48703;51.248;-0.546;2023-04-24T11:35:19;16.61;14.31;
62631;PMS5003;48703;51.248;-0.546;2023-04-24T11:38:19;15.51;13.34;
62631;PMS5003;48703;51.248;-0.546;2023-04-24T11:41:21;17.26;16.43;
62631;PMS5003;48703;51.248;-0.546;2023-04-24T11:44:22;17.61;16.97;
62631;PMS5003;48703;51.248;-0.546;2023-04-24T11:47:27;17.45;17.32;
62631;PMS5003;48703;51.248;-0.546;2023-04-24T11:50:26;16.79;16.34;
62631;PMS5003;48703;51.248;-0.546;2023-04-24T11:53:27;18.46;17.76;
62631;PMS5003;48703;51.248;-0.546;2023-04-24T11:56:29;15.71;14.54;
62631;PMS5003;48703;51.248;-0.546;2023-04-24T11:59:30;17.77;16.04;
62631;PMS5003;48703;51.248;-0.546;2023-04-24T12:02:31;18.00;17.04;
62631;PMS5003;48703;51.248;-0.546;2023-04-24T12:05:33;19.01;17.04;
62631;PMS5003;48703;51.248;-0.546;2023-04-24T12:08:34;18.37;16.97;
62631;PMS5003;48703;51.248;-0.546;2023-04-24T12:11:36;16.37;15.71;
62631;PMS5003;48703;51.248;-0.546;2023-04-24T12:14:47;17.44;15.61;
62631;PMS5003;48703;51.248;-0.546;2023-04-24T12:17:40;16.26;15.03;
62631;PMS5003;48703;51.248;-0.546;2023-04-24T12:20:41;15.83;13.57;
62631;PMS5003;48703;51.248;-0.546;2023-04-24T12:23:43;13.69;13.24;
62631;PMS5003;48703;51.248;-0.546;2023-04-24T12:26:44;18.10;16.43;
62631;PMS5003;48703;51.248;-0.546;2023-04-24T12:29:51;16.40;14.63;
62631;PMS5003;48703;51.248;-0.546;2023-04-24T12:32:47;15.80;14.62;
62631;PMS5003;48703;51.248;-0.546;2023-04-24T12:35:51;15.67;15.31;
62631;PMS5003;48703;51.248;-0.546;2023-04-24T12:38:52;17.83;17.38;
62631;PMS5003;48703;51.248;-0.546;2023-04-24T12:41:54;15.91;15.17;
62631;PMS5003;48703;51.248;-0.546;2023-04-24T12:44:55;15.69;14.99;
62631;PMS5003;48703;51.248;-0.546;2023-04-24T12:47:53;16.01;14.58;
62631;PMS5003;48703;51.248;-0.546;2023-04-24T12:50:54;15.69;15.16;
62631;PMS5003;48703;51.248;-0.546;2023-04-24T12:53:56;14.64;14.44;
62631;PMS5003;48703;51.248;-0.546;2023-04-24T12:56:57;13.57;12.66;
62631;PMS5003;48703;51.248;-0.546;2023-04-24T12:59:58;16.22;14.59;
62631;PMS5003;48703;51.248;-0.546;2023-04-24T13:03:00;17.36;16.33;
62631;PMS5003;48703;51.248;-0.546;2023-04-24T13:06:01;17.41;15.59;
62631;PMS5003;48703;51.248;-0.546;2023-04-24T13:09:02;16.34;14.96;
62631;PMS5003;48703;51.248;-0.546;2023-04-24T13:12:03;16.57;15.88;
62631;PMS5003;48703;51.248;-0.546;2023-04-24T13:15:05;14.71;13.97;
62631;PMS5003;48703;51.248;-0.546;2023-04-24T13:18:06;14.59;14.20;
62631;PMS5003;48703;51.248;-0.546;2023-04-24T13:21:07;15.66;13.34;
62631;PMS5003;48703;51.248;-0.546;2023-04-24T13:24:09;14.33;13.47;
62631;PMS5003;48703;51.248;-0.546;2023-04-24T13:27:10;15.83;15.12;
62631;PMS5003;48703;51.248;-0.546;2023-04-24T13:30:12;15.76;13.99;
62631;PMS5003;48703;51.248;-0.546;2023-04-24T13:33:13;16.13;14.56;
62631;PMS5003;48703;51.248;-0.546;2023-04-24T13:36:14;14.74;13.81;
62631;PMS5003;48703;51.248;-0.546;2023-04-24T13:39:15;15.61;15.61;
62631;PMS5003;48703;51.248;-0.546;2023-04-24T13:42:17;15.47;13.86;
62631;PMS5003;48703;51.248;-0.546;2023-04-24T13:45:18;17.25;16.25;
62631;PMS5003;48703;51.248;-0.546;2023-04-24T13:48:20;14.14;13.31;
62631;PMS5003;48703;51.248;-0.546;2023-04-24T13:51:21;15.04;13.96;
62631;PMS5003;48703;51.248;-0.546;2023-04-24T13:54:23;13.57;13.43;
62631;PMS5003;48703;51.248;-0.546;2023-04-24T13:57:24;14.87;13.66;
62631;PMS5003;48703;51.248;-0.546;2023-04-24T14:00:26;17.25;15.67;
62631;PMS5003;48703;51.248;-0.546;2023-04-24T14:03:27;16.40;15.91;
62631;PMS5003;48703;51.248;-0.546;2023-04-24T14:06:29;12.64;11.87;
62631;PMS5003;48703;51.248;-0.546;2023-04-24T14:09:30;11.44;11.01;
62631;PMS5003;48703;51.248;-0.546;2023-04-24T14:12:32;11.01;10.54;
62631;PMS5003;48703;51.248;-0.546;2023-04-24T14:15:34;12.26;11.96;
62631;PMS5003;48703;51.248;-0.546;2023-04-24T14:18:35;11.70;10.99;
62631;PMS5003;48703;51.248;-0.546;2023-04-24T14:21:36;12.29;10.83;
62631;PMS5003;48703;51.248;-0.546;2023-04-24T14:24:38;13.61;12.06;
62631;PMS5003;48703;51.248;-0.546;2023-04-24T14:27:40;10.40;9.90;
62631;PMS5003;48703;51.248;-0.546;2023-04-24T14:30:42;11.39;10.66;
62631;PMS5003;48703;51.248;-0.546;2023-04-24T14:33:43;13.61;12.07;
62631;PMS5003;48703;51.248;-0.546;2023-04-24T14:36:45;13.93;13.71;
62631;PMS5003;48703;51.248;-0.546;2023-04-24T14:39:46;15.23;12.74;
62631;PMS5003;48703;51.248;-0.546;2023-04-24T14:42:48;14.84;13.91;
62631;PMS5003;48703;51.248;-0.546;2023-04-24T14:45:49;13.47;12.20;
62631;PMS5003;48703;51.248;-0.546;2023-04-24T14:48:50;12.43;12.36;
62631;PMS5003;48703;51.248;-0.546;2023-04-24T14:51:51;13.71;13.13;
62631;PMS5003;48703;51.248;-0.546;2023-04-24T14:54:53;15.99;14.87;
62631;PMS5003;48703;51.248;-0.546;2023-04-24T14:57:54;15.84;14.01;
62631;PMS5003;48703;51.248;-0.546;2023-04-24T15:00:56;16.60;14.93;
62631;PMS5003;48703;51.248;-0.546;2023-04-24T15:03:57;15.17;14.41;
62631;PMS5003;48703;51.248;-0.546;2023-04-24T15:06:59;12.76;12.76;
62631;PMS5003;48703;51.248;-0.546;2023-04-24T15:10:01;14.41;13.36;
62631;PMS5003;48703;51.248;-0.546;2023-04-24T15:13:03;14.26;13.81;
62631;PMS5003;48703;51.248;-0.546;2023-04-24T15:16:05;15.70;14.26;
62631;PMS5003;48703;51.248;-0.546;2023-04-24T15:19:05;16.32;14.81;
62631;PMS5003;48703;51.248;-0.546;2023-04-24T15:22:07;14.50;14.03;
62631;PMS5003;48703;51.248;-0.546;2023-04-24T15:25:09;17.48;16.26;
62631;PMS5003;48703;51.248;-0.546;2023-04-24T15:28:10;17.41;14.70;
62631;PMS5003;48703;51.248;-0.546;2023-04-24T15:31:11;15.66;14.80;
62631;PMS5003;48703;51.248;-0.546;2023-04-24T15:34:12;18.62;17.74;
62631;PMS5003;48703;51.248;-0.546;2023-04-24T15:37:14;19.62;17.94;
62631;PMS5003;48703;51.248;-0.546;2023-04-24T15:40:15;16.69;15.87;
62631;PMS5003;48703;51.248;-0.546;2023-04-24T15:43:16;15.23;14.20;
62631;PMS5003;48703;51.248;-0.546;2023-04-24T15:46:18;14.41;14.26;
62631;PMS5003;48703;51.248;-0.546;2023-04-24T15:49:19;16.57;15.07;
62631;PMS5003;48703;51.248;-0.546;2023-04-24T15:52:21;13.87;12.63;
62631;PMS5003;48703;51.248;-0.546;2023-04-24T15:55:23;13.04;12.30;
62631;PMS5003;48703;51.248;-0.546;2023-04-24T15:58:25;14.19;11.81;
62631;PMS5003;48703;51.248;-0.546;2023-04-24T16:01:26;12.86;12.01;
62631;PMS5003;48703;51.248;-0.546;2023-04-24T16:04:27;11.33;10.94;
62631;PMS5003;48703;51.248;-0.546;2023-04-24T16:07:30;11.71;10.50;
62631;PMS5003;48703;51.248;-0.546;2023-04-24T16:10:31;12.41;11.60;
62631;PMS5003;48703;51.248;-0.546;2023-04-24T16:13:34;11.46;9.24;
62631;PMS5003;48703;51.248;-0.546;2023-04-24T16:16:34;11.66;10.84;
62631;PMS5003;48703;51.248;-0.546;2023-04-24T16:19:36;9.66;9.66;
62631;PMS5003;48703;51.248;-0.546;2023-04-24T16:22:38;8.50;8.09;
62631;PMS5003;48703;51.248;-0.546;2023-04-24T16:25:39;8.90;8.75;
62631;PMS5003;48703;51.248;-0.546;2023-04-24T16:28:40;8.89;8.89;
62631;PMS5003;48703;51.248;-0.546;2023-04-24T16:31:42;9.43;9.17;
62631;PMS5003;48703;51.248;-0.546;2023-04-24T16:34:44;9.84;9.20;
62631;PMS5003;48703;51.248;-0.546;2023-04-24T16:37:45;8.67;8.17;
62631;PMS5003;48703;51.248;-0.546;2023-04-24T16:40:47;9.99;9.46;
62631;PMS5003;48703;51.248;-0.546;2023-04-24T16:43:49;10.86;10.10;
62631;PMS5003;48703;51.248;-0.546;2023-04-24T16:46:50;11.56;10.80;
62631;PMS5003;48703;51.248;-0.546;2023-04-24T16:49:52;12.14;10.43;
62631;PMS5003;48703;51.248;-0.546;2023-04-24T16:52:53;11.80;10.46;
62631;PMS5003;48703;51.248;-0.546;2023-04-24T16:55:55;11.09;10.24;
62631;PMS5003;48703;51.248;-0.546;2023-04-24T16:58:56;13.35;12.67;
62631;PMS5003;48703;51.248;-0.546;2023-04-24T17:01:58;10.73;9.54;
62631;PMS5003;48703;51.248;-0.546;2023-04-24T17:05:00;11.24;9.96;
62631;PMS5003;48703;51.248;-0.546;2023-04-24T17:08:02;9.74;8.46;
62631;PMS5003;48703;51.248;-0.546;2023-04-24T17:11:03;7.30;6.90;
62631;PMS5003;48703;51.248;-0.546;2023-04-24T17:14:05;7.07;6.79;
62631;PMS5003;48703;51.248;-0.546;2023-04-24T17:17:07;6.91;6.91;
62631;PMS5003;48703;51.248;-0.546;2023-04-24T17:20:08;7.99;6.10;
62631;PMS5003;48703;51.248;-0.546;2023-04-24T17:23:10;5.97;5.67;
62631;PMS5003;48703;51.248;-0.546;2023-04-24T17:26:12;5.17;4.87;
62631;PMS5003;48703;51.248;-0.546;2023-04-24T17:29:13;6.87;5.37;
62631;PMS5003;48703;51.248;-0.546;2023-04-24T17:32:15;4.64;4.39;
62631;PMS5003;48703;51.248;-0.546;2023-04-24T17:35:17;5.29;3.69;
62631;PMS5003;48703;51.248;-0.546;2023-04-24T17:38:19;4.21;4.10;
62631;PMS5003;48703;51.248;-0.546;2023-04-24T17:41:20;4.36;4.20;
62631;PMS5003;48703;51.248;-0.546;2023-04-24T17:44:22;4.53;4.40;
62631;PMS5003;48703;51.248;-0.546;2023-04-24T17:47:24;5.50;5.13;
62631;PMS5003;48703;51.248;-0.546;2023-04-24T17:50:25;6.13;6.06;
62631;PMS5003;48703;51.248;-0.546;2023-04-24T17:53:27;5.64;5.40;
62631;PMS5003;48703;51.248;-0.546;2023-04-24T17:56:29;5.29;4.99;
62631;PMS5003;48703;51.248;-0.546;2023-04-24T17:59:31;6.47;6.19;
62631;PMS5003;48703;51.248;-0.546;2023-04-24T18:02:32;6.06;5.53;